sensor_id;sensor_type;location;lat;lon;timestamp;pressure;altitude;pressure_sealevel;temperature;humidity
34979;BME280;21185;50.978;13.720;2023-02-12T00:02:07;99936.59;;;5.69;87.60
34979;BME280;21185;50.978;13.720;2023-02-12T00:07:10;99942.56;;;5.70;87.35
34979;BME280;21185;50.978;13.720;2023-02-12T00:12:12;99947.63;;;5.71;87.44
34979;BME280;21185;50.978;13.720;2023-02-12T00:17:14;99954.44;;;5.72;87.45
34979;BME280;21185;50.978;13.720;2023-02-12T00:22:16;99952.69;;;5.73;87.13
34979;BME280;21185;50.978;13.720;2023-02-12T00:27:18;99946.72;;;5.72;87.20
34979;BME280;21185;50.978;13.720;2023-02-12T00:32:20;99953.53;;;5.73;87.35
34979;BME280;21185;50.978;13.720;2023-02-12T00:37:25;99956.94;;;5.74;87.48
34979;BME280;21185;50.978;13.720;2023-02-12T00:42:27;99966.31;;;5.75;87.48
34979;BME280;21185;50.978;13.720;2023-02-12T00:47:29;99972.28;;;5.75;87.47
34979;BME280;21185;50.978;13.720;2023-02-12T00:52:31;99962.81;;;5.76;87.41
34979;BME280;21185;50.978;13.720;2023-02-12T00:57:33;99965.41;;;5.76;87.78
34979;BME280;21185;50.978;13.720;2023-02-12T01:02:36;99970.56;;;5.76;87.75
34979;BME280;21185;50.978;13.720;2023-02-12T01:07:40;99979.09;;;5.76;87.73
34979;BME280;21185;50.978;13.720;2023-02-12T01:12:42;99982.59;;;5.75;87.73
34979;BME280;21185;50.978;13.720;2023-02-12T01:17:44;99978.28;;;5.76;87.87
34979;BME280;21185;50.978;13.720;2023-02-12T01:22:46;99982.59;;;5.75;87.68
34979;BME280;21185;50.978;13.720;2023-02-12T01:27:52;99978.28;;;5.76;87.72
34979;BME280;21185;50.978;13.720;2023-02-12T01:38:46;99986.00;;;5.76;87.82
34979;BME280;21185;50.978;13.720;2023-02-12T01:49:40;99983.34;;;5.77;88.02
34979;BME280;21185;50.978;13.720;2023-02-12T01:54:43;99988.56;;;5.76;88.06
34979;BME280;21185;50.978;13.720;2023-02-12T01:59:47;99985.09;;;5.77;87.92
34979;BME280;21185;50.978;13.720;2023-02-12T02:04:57;99994.56;;;5.76;88.05
34979;BME280;21185;50.978;13.720;2023-02-12T02:10:02;99989.41;;;5.76;87.91
34979;BME280;21185;50.978;13.720;2023-02-12T02:15:05;99981.59;;;5.78;88.00
34979;BME280;21185;50.978;13.720;2023-02-12T02:20:56;99985.81;;;5.79;88.05
34979;BME280;21185;50.978;13.720;2023-02-12T02:47:54;99991.88;;;5.78;88.21
34979;BME280;21185;50.978;13.720;2023-02-12T02:53:03;99989.31;;;5.78;88.20
34979;BME280;21185;50.978;13.720;2023-02-12T02:58:14;99997.88;;;5.78;87.88
34979;BME280;21185;50.978;13.720;2023-02-12T03:03:49;100004.69;;;5.79;88.11
34979;BME280;21185;50.978;13.720;2023-02-12T03:09:00;100004.69;;;5.79;88.24
34979;BME280;21185;50.978;13.720;2023-02-12T03:14:15;100014.97;;;5.79;88.03
34979;BME280;21185;50.978;13.720;2023-02-12T03:19:31;100018.31;;;5.81;88.13
34979;BME280;21185;50.978;13.720;2023-02-12T03:24:50;100019.97;;;5.82;88.09
34979;BME280;21185;50.978;13.720;2023-02-12T03:29:54;100023.28;;;5.84;88.16
34979;BME280;21185;50.978;13.720;2023-02-12T03:40:34;100046.38;;;5.86;87.92
34979;BME280;21185;50.978;13.720;2023-02-12T03:45:58;100055.84;;;5.85;88.08
34979;BME280;21185;50.978;13.720;2023-02-12T03:51:14;100061.00;;;5.85;88.07
34979;BME280;21185;50.978;13.720;2023-02-12T03:56:23;100071.31;;;5.85;87.91
34979;BME280;21185;50.978;13.720;2023-02-12T04:01:27;100075.72;;;5.83;87.83
34979;BME280;21185;50.978;13.720;2023-02-12T04:06:29;100082.63;;;5.83;88.02
34979;BME280;21185;50.978;13.720;2023-02-12T04:22:06;100095.41;;;5.84;88.04
34979;BME280;21185;50.978;13.720;2023-02-12T04:27:24;100096.25;;;5.85;87.93
34979;BME280;21185;50.978;13.720;2023-02-12T04:38:07;100100.56;;;5.84;87.64
34979;BME280;21185;50.978;13.720;2023-02-12T04:43:32;100086.75;;;5.85;87.84
34979;BME280;21185;50.978;13.720;2023-02-12T04:48:58;100097.91;;;5.86;87.42
34979;BME280;21185;50.978;13.720;2023-02-12T04:53:59;100107.47;;;5.84;87.55
34979;BME280;21185;50.978;13.720;2023-02-12T04:59:01;100108.19;;;5.86;87.67
34979;BME280;21185;50.978;13.720;2023-02-12T05:04:09;100112.53;;;5.85;87.26
34979;BME280;21185;50.978;13.720;2023-02-12T05:09:17;100115.09;;;5.85;87.36
34979;BME280;21185;50.978;13.720;2023-02-12T05:14:19;100109.94;;;5.85;87.29
34979;BME280;21185;50.978;13.720;2023-02-12T05:19:21;100117.69;;;5.85;87.39
34979;BME280;21185;50.978;13.720;2023-02-12T05:24:23;100114.19;;;5.86;87.32
34979;BME280;21185;50.978;13.720;2023-02-12T05:29:25;100115.84;;;5.88;87.32
34979;BME280;21185;50.978;13.720;2023-02-12T05:34:27;100121.81;;;5.88;87.38
34979;BME280;21185;50.978;13.720;2023-02-12T05:39:28;100128.72;;;5.88;87.33
34979;BME280;21185;50.978;13.720;2023-02-12T05:44:30;100127.06;;;5.86;87.10
34979;BME280;21185;50.978;13.720;2023-02-12T05:49:32;100125.31;;;5.87;87.38
34979;BME280;21185;50.978;13.720;2023-02-12T05:54:35;100130.47;;;5.87;87.23
34979;BME280;21185;50.978;13.720;2023-02-12T05:59:37;100135.63;;;5.87;87.26
34979;BME280;21185;50.978;13.720;2023-02-12T06:04:40;100129.63;;;5.86;87.09
34979;BME280;21185;50.978;13.720;2023-02-12T06:09:42;100140.69;;;5.89;87.11
34979;BME280;21185;50.978;13.720;2023-02-12T06:14:44;100150.94;;;5.90;87.09
34979;BME280;21185;50.978;13.720;2023-02-12T06:19:45;100152.59;;;5.91;87.09
34979;BME280;21185;50.978;13.720;2023-02-12T06:24:56;100161.06;;;5.93;87.03
34979;BME280;21185;50.978;13.720;2023-02-12T06:29:58;100164.47;;;5.94;86.97
34979;BME280;21185;50.978;13.720;2023-02-12T06:35:00;100170.56;;;5.93;87.28
34979;BME280;21185;50.978;13.720;2023-02-12T06:40:05;100182.53;;;5.94;86.88
34979;BME280;21185;50.978;13.720;2023-02-12T06:45:07;100193.66;;;5.94;87.05
34979;BME280;21185;50.978;13.720;2023-02-12T06:50:09;100201.31;;;5.96;86.91
34979;BME280;21185;50.978;13.720;2023-02-12T06:55:12;100209.03;;;5.96;86.84
34979;BME280;21185;50.978;13.720;2023-02-12T07:00:14;100208.94;;;5.97;86.88
34979;BME280;21185;50.978;13.720;2023-02-12T07:05:41;100223.50;;;5.98;86.89
34979;BME280;21185;50.978;13.720;2023-02-12T07:10:47;100220.91;;;5.98;87.01
34979;BME280;21185;50.978;13.720;2023-02-12T07:15:50;100215.75;;;5.98;86.75
34979;BME280;21185;50.978;13.720;2023-02-12T07:26:20;100226.72;;;6.02;86.86
34979;BME280;21185;50.978;13.720;2023-02-12T07:31:23;100232.72;;;6.02;86.68
34979;BME280;21185;50.978;13.720;2023-02-12T07:36:28;100236.13;;;6.03;86.75
34979;BME280;21185;50.978;13.720;2023-02-12T07:41:33;100237.69;;;6.05;86.70
34979;BME280;21185;50.978;13.720;2023-02-12T07:51:42;100246.84;;;6.11;86.82
34979;BME280;21185;50.978;13.720;2023-02-12T07:56:44;100248.41;;;6.13;86.62
34979;BME280;21185;50.978;13.720;2023-02-12T08:01:50;100249.06;;;6.17;86.57
34979;BME280;21185;50.978;13.720;2023-02-12T08:06:53;100241.81;;;6.24;86.66
34979;BME280;21185;50.978;13.720;2023-02-12T08:11:56;100247.53;;;6.29;86.29
34979;BME280;21185;50.978;13.720;2023-02-12T08:17:05;100246.53;;;6.31;86.79
34979;BME280;21185;50.978;13.720;2023-02-12T08:22:08;100252.63;;;6.30;86.61
34979;BME280;21185;50.978;13.720;2023-02-12T08:27:10;100256.84;;;6.31;86.66
34979;BME280;21185;50.978;13.720;2023-02-12T08:32:12;100267.91;;;6.33;86.70
34979;BME280;21185;50.978;13.720;2023-02-12T08:37:15;100259.25;;;6.34;86.89
34979;BME280;21185;50.978;13.720;2023-02-12T08:42:43;100267.72;;;6.36;86.99
34979;BME280;21185;50.978;13.720;2023-02-12T08:47:46;100274.72;;;6.34;86.94
34979;BME280;21185;50.978;13.720;2023-02-12T08:52:48;100279.78;;;6.36;86.98
34979;BME280;21185;50.978;13.720;2023-02-12T08:57:59;100276.38;;;6.35;86.72
34979;BME280;21185;50.978;13.720;2023-02-12T09:03:05;100287.44;;;6.37;87.12
34979;BME280;21185;50.978;13.720;2023-02-12T09:08:07;100291.59;;;6.40;87.05
34979;BME280;21185;50.978;13.720;2023-02-12T09:13:11;100300.91;;;6.42;86.83
34979;BME280;21185;50.978;13.720;2023-02-12T09:18:14;100300.56;;;6.48;86.86
34979;BME280;21185;50.978;13.720;2023-02-12T09:23:16;100307.38;;;6.49;86.90
34979;BME280;21185;50.978;13.720;2023-02-12T09:28:18;100311.63;;;6.50;86.77
34979;BME280;21185;50.978;13.720;2023-02-12T09:33:20;100314.22;;;6.50;86.73
34979;BME280;21185;50.978;13.720;2023-02-12T09:38:23;100313.94;;;6.55;87.04
34979;BME280;21185;50.978;13.720;2023-02-12T09:43:47;100318.75;;;6.61;86.83
34979;BME280;21185;50.978;13.720;2023-02-12T09:54:14;100325.31;;;6.67;86.95
34979;BME280;21185;50.978;13.720;2023-02-12T09:59:32;100337.88;;;6.73;87.05
34979;BME280;21185;50.978;13.720;2023-02-12T10:04:35;100333.44;;;6.75;87.09
34979;BME280;21185;50.978;13.720;2023-02-12T10:09:50;100336.03;;;6.75;86.79
34979;BME280;21185;50.978;13.720;2023-02-12T10:15:19;100337.50;;;6.79;87.17
34979;BME280;21185;50.978;13.720;2023-02-12T10:25:42;100347.41;;;6.87;86.91
34979;BME280;21185;50.978;13.720;2023-02-12T10:30:54;100345.47;;;6.90;87.08
34979;BME280;21185;50.978;13.720;2023-02-12T10:36:17;100342.72;;;6.93;87.15
34979;BME280;21185;50.978;13.720;2023-02-12T10:41:26;100341.63;;;6.97;87.02
34979;BME280;21185;50.978;13.720;2023-02-12T10:46:30;100345.59;;;7.03;87.08
34979;BME280;21185;50.978;13.720;2023-02-12T10:51:42;100339.97;;;7.10;86.94
34979;BME280;21185;50.978;13.720;2023-02-12T10:56:49;100343.97;;;7.16;87.18
34979;BME280;21185;50.978;13.720;2023-02-12T11:01:52;100338.53;;;7.21;87.29
34979;BME280;21185;50.978;13.720;2023-02-12T11:07:06;100329.69;;;7.25;87.19
34979;BME280;21185;50.978;13.720;2023-02-12T11:12:30;100327.66;;;7.30;87.26
34979;BME280;21185;50.978;13.720;2023-02-12T11:17:34;100320.47;;;7.35;87.01
34979;BME280;21185;50.978;13.720;2023-02-12T11:22:36;100315.09;;;7.38;87.16
34979;BME280;21185;50.978;13.720;2023-02-12T11:27:38;100316.59;;;7.42;87.01
34979;BME280;21185;50.978;13.720;2023-02-12T11:32:40;100314.75;;;7.44;87.12
34979;BME280;21185;50.978;13.720;2023-02-12T11:37:44;100312.81;;;7.47;87.23
34979;BME280;21185;50.978;13.720;2023-02-12T11:43:07;100313.72;;;7.46;87.18
34979;BME280;21185;50.978;13.720;2023-02-12T11:48:20;100312.91;;;7.46;87.29
34979;BME280;21185;50.978;13.720;2023-02-12T11:53:35;100313.53;;;7.50;87.19
34979;BME280;21185;50.978;13.720;2023-02-12T11:58:38;100305.59;;;7.53;87.08
34979;BME280;21185;50.978;13.720;2023-02-12T12:08:50;100310.41;;;7.59;86.96
34979;BME280;21185;50.978;13.720;2023-02-12T12:14:04;100304.41;;;7.58;86.96
34979;BME280;21185;50.978;13.720;2023-02-12T12:19:17;100315.66;;;7.57;86.90
34979;BME280;21185;50.978;13.720;2023-02-12T12:25:03;100312.44;;;7.54;86.92
34979;BME280;21185;50.978;13.720;2023-02-12T12:30:19;100310.03;;;7.51;86.90
34979;BME280;21185;50.978;13.720;2023-02-12T12:35:32;100298.31;;;7.45;86.79
34979;BME280;21185;50.978;13.720;2023-02-12T12:41:01;100295.84;;;7.43;86.83
34979;BME280;21185;50.978;13.720;2023-02-12T12:51:29;100292.59;;;7.40;86.72
34979;BME280;21185;50.978;13.720;2023-02-12T13:18:30;100284.47;;;7.46;86.70
34979;BME280;21185;50.978;13.720;2023-02-12T13:23:54;100289.75;;;7.44;86.76
34979;BME280;21185;50.978;13.720;2023-02-12T13:29:09;100289.94;;;7.41;86.79
34979;BME280;21185;50.978;13.720;2023-02-12T13:34:14;100292.59;;;7.40;86.63
34979;BME280;21185;50.978;13.720;2023-02-12T13:39:29;100280.63;;;7.39;86.76
34979;BME280;21185;50.978;13.720;2023-02-12T13:45:00;100277.09;;;7.40;86.75
34979;BME280;21185;50.978;13.720;2023-02-12T14:01:34;100291.59;;;7.42;86.65
34979;BME280;21185;50.978;13.720;2023-02-12T14:06:37;100289.09;;;7.41;86.67
34979;BME280;21185;50.978;13.720;2023-02-12T14:11:50;100283.00;;;7.42;86.61
34979;BME280;21185;50.978;13.720;2023-02-12T14:16:53;100285.78;;;7.39;86.67
34979;BME280;21185;50.978;13.720;2023-02-12T14:21:55;100292.78;;;7.37;86.69
34979;BME280;21185;50.978;13.720;2023-02-12T14:26:57;100294.44;;;7.38;86.77
34979;BME280;21185;50.978;13.720;2023-02-12T14:31:59;100290.22;;;7.37;86.57
34979;BME280;21185;50.978;13.720;2023-02-12T14:37:31;100293.53;;;7.39;86.43
34979;BME280;21185;50.978;13.720;2023-02-12T14:47:49;100300.63;;;7.35;86.59
34979;BME280;21185;50.978;13.720;2023-02-12T14:53:02;100292.78;;;7.37;86.62
34979;BME280;21185;50.978;13.720;2023-02-12T14:58:17;100296.09;;;7.39;86.66
34979;BME280;21185;50.978;13.720;2023-02-12T15:03:24;100297.78;;;7.40;86.56
34979;BME280;21185;50.978;13.720;2023-02-12T15:08:42;100295.19;;;7.40;86.61
34979;BME280;21185;50.978;13.720;2023-02-12T15:13:52;100301.28;;;7.39;86.54
34979;BME280;21185;50.978;13.720;2023-02-12T15:24:24;100292.78;;;7.37;86.45
34979;BME280;21185;50.978;13.720;2023-02-12T15:29:38;100298.97;;;7.34;86.43
34979;BME280;21185;50.978;13.720;2023-02-12T15:34:42;100299.06;;;7.33;86.58
34979;BME280;21185;50.978;13.720;2023-02-12T15:39:51;100316.31;;;7.32;86.54
34979;BME280;21185;50.978;13.720;2023-02-12T15:50:12;100305.34;;;7.29;86.46
34979;BME280;21185;50.978;13.720;2023-02-12T15:55:21;100303.66;;;7.28;86.39
34979;BME280;21185;50.978;13.720;2023-02-12T16:00:39;100309.84;;;7.25;86.70
34979;BME280;21185;50.978;13.720;2023-02-12T16:05:42;100311.69;;;7.23;86.47
34979;BME280;21185;50.978;13.720;2023-02-12T16:10:47;100312.69;;;7.21;86.33
34979;BME280;21185;50.978;13.720;2023-02-12T16:21:17;100322.38;;;7.17;86.30
34979;BME280;21185;50.978;13.720;2023-02-12T16:26:21;100328.38;;;7.18;86.34
34979;BME280;21185;50.978;13.720;2023-02-12T16:31:25;100325.25;;;7.12;86.03
34979;BME280;21185;50.978;13.720;2023-02-12T16:36:30;100334.81;;;7.10;86.08
34979;BME280;21185;50.978;13.720;2023-02-12T16:41:34;100340.91;;;7.09;86.41
34979;BME280;21185;50.978;13.720;2023-02-12T16:46:56;100344.41;;;7.08;86.17
34979;BME280;21185;50.978;13.720;2023-02-12T16:52:36;100344.41;;;7.08;86.50
34979;BME280;21185;50.978;13.720;2023-02-12T16:57:39;100342.84;;;7.06;86.33
34979;BME280;21185;50.978;13.720;2023-02-12T17:02:42;100347.16;;;7.05;86.46
34979;BME280;21185;50.978;13.720;2023-02-12T17:07:45;100349.84;;;7.04;86.23
34979;BME280;21185;50.978;13.720;2023-02-12T17:12:49;100347.34;;;7.02;86.29
34979;BME280;21185;50.978;13.720;2023-02-12T17:17:52;100353.44;;;7.01;86.37
34979;BME280;21185;50.978;13.720;2023-02-12T17:23:09;100346.69;;;6.99;86.22
34979;BME280;21185;50.978;13.720;2023-02-12T17:28:12;100358.94;;;6.95;86.24
34979;BME280;21185;50.978;13.720;2023-02-12T17:33:15;100356.44;;;6.94;86.30
34979;BME280;21185;50.978;13.720;2023-02-12T17:38:17;100359.94;;;6.93;86.36
34979;BME280;21185;50.978;13.720;2023-02-12T17:43:19;100371.09;;;6.93;86.43
34979;BME280;21185;50.978;13.720;2023-02-12T17:48:21;100372.03;;;6.92;86.42
34979;BME280;21185;50.978;13.720;2023-02-12T17:53:31;100378.94;;;6.92;86.46
34979;BME280;21185;50.978;13.720;2023-02-12T17:58:33;100390.91;;;6.93;86.33
34979;BME280;21185;50.978;13.720;2023-02-12T18:03:35;100373.78;;;6.92;86.42
34979;BME280;21185;50.978;13.720;2023-02-12T18:08:37;100378.84;;;6.93;86.22
34979;BME280;21185;50.978;13.720;2023-02-12T18:13:39;100390.09;;;6.92;86.20
34979;BME280;21185;50.978;13.720;2023-02-12T18:18:43;100384.94;;;6.92;86.25
34979;BME280;21185;50.978;13.720;2023-02-12T18:23:45;100387.50;;;6.92;86.21
34979;BME280;21185;50.978;13.720;2023-02-12T18:28:47;100388.44;;;6.91;86.38
34979;BME280;21185;50.978;13.720;2023-02-12T18:33:50;100394.50;;;6.90;86.42
34979;BME280;21185;50.978;13.720;2023-02-12T18:38:52;100389.44;;;6.89;86.38
34979;BME280;21185;50.978;13.720;2023-02-12T18:43:56;100385.28;;;6.86;86.35
34979;BME280;21185;50.978;13.720;2023-02-12T18:48:58;100386.09;;;6.87;86.25
34979;BME280;21185;50.978;13.720;2023-02-12T18:54:03;100375.78;;;6.87;86.38
34979;BME280;21185;50.978;13.720;2023-02-12T18:59:11;100376.63;;;6.87;86.50
34979;BME280;21185;50.978;13.720;2023-02-12T19:04:14;100387.69;;;6.89;86.44
34979;BME280;21185;50.978;13.720;2023-02-12T19:09:19;100382.44;;;6.91;86.20
34979;BME280;21185;50.978;13.720;2023-02-12T19:14:22;100367.78;;;6.91;86.27
34979;BME280;21185;50.978;13.720;2023-02-12T19:19:25;100373.13;;;6.88;86.23
34979;BME280;21185;50.978;13.720;2023-02-12T19:24:28;100373.28;;;6.85;86.15
34979;BME280;21185;50.978;13.720;2023-02-12T19:29:46;100364.72;;;6.85;86.28
34979;BME280;21185;50.978;13.720;2023-02-12T19:34:48;100366.56;;;6.82;86.46
34979;BME280;21185;50.978;13.720;2023-02-12T19:39:49;100352.81;;;6.82;86.35
34979;BME280;21185;50.978;13.720;2023-02-12T19:44:51;100358.81;;;6.82;86.50
34979;BME280;21185;50.978;13.720;2023-02-12T19:49:53;100354.56;;;6.81;86.52
34979;BME280;21185;50.978;13.720;2023-02-12T19:54:56;100358.06;;;6.80;86.50
34979;BME280;21185;50.978;13.720;2023-02-12T19:59:59;100361.47;;;6.81;86.27
34979;BME280;21185;50.978;13.720;2023-02-12T20:05:01;100363.31;;;6.79;86.23
34979;BME280;21185;50.978;13.720;2023-02-12T20:10:03;100356.31;;;6.81;86.47
34979;BME280;21185;50.978;13.720;2023-02-12T20:15:06;100352.06;;;6.80;86.30
34979;BME280;21185;50.978;13.720;2023-02-12T20:20:08;100353.00;;;6.79;86.30
34979;BME280;21185;50.978;13.720;2023-02-12T20:25:10;100351.34;;;6.78;86.38
34979;BME280;21185;50.978;13.720;2023-02-12T20:30:22;100346.25;;;6.76;86.31
34979;BME280;21185;50.978;13.720;2023-02-12T20:35:24;100353.16;;;6.76;86.45
34979;BME280;21185;50.978;13.720;2023-02-12T20:40:26;100351.50;;;6.75;86.61
34979;BME280;21185;50.978;13.720;2023-02-12T20:45:28;100361.16;;;6.71;86.43
34979;BME280;21185;50.978;13.720;2023-02-12T20:50:30;100364.66;;;6.70;86.25
34979;BME280;21185;50.978;13.720;2023-02-12T20:55:32;100366.41;;;6.70;86.25
34979;BME280;21185;50.978;13.720;2023-02-12T21:00:34;100364.75;;;6.69;86.28
34979;BME280;21185;50.978;13.720;2023-02-12T21:05:36;100359.59;;;6.69;86.38
34979;BME280;21185;50.978;13.720;2023-02-12T21:10:38;100360.44;;;6.69;86.49
34979;BME280;21185;50.978;13.720;2023-02-12T21:15:40;100359.50;;;6.70;86.47
34979;BME280;21185;50.978;13.720;2023-02-12T21:20:42;100355.34;;;6.68;86.10
34979;BME280;21185;50.978;13.720;2023-02-12T21:25:44;100355.53;;;6.65;86.11
34979;BME280;21185;50.978;13.720;2023-02-12T21:30:46;100365.00;;;6.64;86.23
34979;BME280;21185;50.978;13.720;2023-02-12T21:35:48;100362.44;;;6.64;86.39
34979;BME280;21185;50.978;13.720;2023-02-12T21:40:49;100358.19;;;6.63;86.39
34979;BME280;21185;50.978;13.720;2023-02-12T21:45:51;100362.53;;;6.63;86.16
34979;BME280;21185;50.978;13.720;2023-02-12T21:50:53;100361.03;;;6.59;86.27
34979;BME280;21185;50.978;13.720;2023-02-12T21:56:04;100357.72;;;6.57;86.41
34979;BME280;21185;50.978;13.720;2023-02-12T22:01:08;100357.72;;;6.57;86.15
34979;BME280;21185;50.978;13.720;2023-02-12T22:06:12;100352.72;;;6.54;86.33
34979;BME280;21185;50.978;13.720;2023-02-12T22:11:15;100356.38;;;6.49;86.41
34979;BME280;21185;50.978;13.720;2023-02-12T22:16:22;100359.97;;;6.47;86.21
34979;BME280;21185;50.978;13.720;2023-02-12T22:21:28;100347.06;;;6.47;86.54
34979;BME280;21185;50.978;13.720;2023-02-12T22:26:31;100351.22;;;6.49;86.43
34979;BME280;21185;50.978;13.720;2023-02-12T22:31:34;100350.31;;;6.50;86.38
34979;BME280;21185;50.978;13.720;2023-02-12T22:36:38;100351.06;;;6.53;86.48
34979;BME280;21185;50.978;13.720;2023-02-12T22:41:40;100351.97;;;6.52;86.54
34979;BME280;21185;50.978;13.720;2023-02-12T22:46:44;100363.97;;;6.53;86.66
34979;BME280;21185;50.978;13.720;2023-02-12T22:51:46;100366.44;;;6.54;86.50
34979;BME280;21185;50.978;13.720;2023-02-12T22:56:50;100365.44;;;6.57;86.49
34979;BME280;21185;50.978;13.720;2023-02-12T23:01:52;100369.69;;;6.58;86.36
34979;BME280;21185;50.978;13.720;2023-02-12T23:06:54;100362.88;;;6.57;86.49
34979;BME280;21185;50.978;13.720;2023-02-12T23:12:05;100355.97;;;6.57;86.43
34979;BME280;21185;50.978;13.720;2023-02-12T23:17:08;100356.78;;;6.58;86.38
34979;BME280;21185;50.978;13.720;2023-02-12T23:22:10;100346.47;;;6.58;86.35
34979;BME280;21185;50.978;13.720;2023-02-12T23:27:12;100363.63;;;6.59;86.52
34979;BME280;21185;50.978;13.720;2023-02-12T23:32:14;100347.22;;;6.60;86.44
34979;BME280;21185;50.978;13.720;2023-02-12T23:37:16;100349.78;;;6.60;86.34
34979;BME280;21185;50.978;13.720;2023-02-12T23:42:17;100346.31;;;6.61;86.20
34979;BME280;21185;50.978;13.720;2023-02-12T23:47:19;100348.88;;;6.61;86.43
34979;BME280;21185;50.978;13.720;2023-02-12T23:52:21;100348.03;;;6.60;86.33
34979;BME280;21185;50.978;13.720;2023-02-12T23:57:23;100343.72;;;6.61;86.21
